sensor_id;sensor_type;location;lat;lon;timestamp;pressure;altitude;pressure_sealevel;temperature
13410;BMP180;6775;49.574;11.170;2023-12-22T00:00:18;95853.75;;;5.41
13410;BMP180;6775;49.574;11.170;2023-12-22T00:02:46;95863.16;;;5.40
13410;BMP180;6775;49.574;11.170;2023-12-22T00:05:14;95868.25;;;5.40
13410;BMP180;6775;49.574;11.170;2023-12-22T00:07:42;95867.31;;;5.41
13410;BMP180;6775;49.574;11.170;2023-12-22T00:10:11;95884.06;;;5.44
13410;BMP180;6775;49.574;11.170;2023-12-22T00:12:40;95873.88;;;5.44
13410;BMP180;6775;49.574;11.170;2023-12-22T00:15:09;95880.59;;;5.45
13410;BMP180;6775;49.574;11.170;2023-12-22T00:17:37;95886.22;;;5.48
13410;BMP180;6775;49.574;11.170;2023-12-22T00:20:06;95887.72;;;5.50
13410;BMP180;6775;49.574;11.170;2023-12-22T00:22:37;95895.22;;;5.52
13410;BMP180;6775;49.574;11.170;2023-12-22T00:25:06;95903.94;;;5.49
13410;BMP180;6775;49.574;11.170;2023-12-22T00:27:36;95893.75;;;5.49
13410;BMP180;6775;49.574;11.170;2023-12-22T00:30:08;95882.50;;;5.52
13410;BMP180;6775;49.574;11.170;2023-12-22T00:32:36;95894.31;;;5.53
13410;BMP180;6775;49.574;11.170;2023-12-22T00:35:05;95889.22;;;5.53
13410;BMP180;6775;49.574;11.170;2023-12-22T00:37:34;95892.94;;;5.49
13410;BMP180;6775;49.574;11.170;2023-12-22T00:40:02;95894.69;;;5.49
13410;BMP180;6775;49.574;11.170;2023-12-22T00:42:31;95902.72;;;5.44
13410;BMP180;6775;49.574;11.170;2023-12-22T00:44:59;95896.28;;;5.40
13410;BMP180;6775;49.574;11.170;2023-12-22T00:47:29;95905.63;;;5.40
13410;BMP180;6775;49.574;11.170;2023-12-22T00:49:57;95906.34;;;5.42
13410;BMP180;6775;49.574;11.170;2023-12-22T00:52:25;95904.72;;;5.41
13410;BMP180;6775;49.574;11.170;2023-12-22T00:54:54;95895.31;;;5.41
13410;BMP180;6775;49.574;11.170;2023-12-22T00:57:22;95899.63;;;5.41
13410;BMP180;6775;49.574;11.170;2023-12-22T00:59:51;95909.41;;;5.36
13410;BMP180;6775;49.574;11.170;2023-12-22T01:02:19;95904.44;;;5.34
13410;BMP180;6775;49.574;11.170;2023-12-22T01:04:49;95908.84;;;5.32
13410;BMP180;6775;49.574;11.170;2023-12-22T01:07:17;95908.97;;;5.31
13410;BMP180;6775;49.574;11.170;2023-12-22T01:09:46;95907.34;;;5.30
13410;BMP180;6775;49.574;11.170;2023-12-22T01:12:14;95908.16;;;5.30
13410;BMP180;6775;49.574;11.170;2023-12-22T01:14:42;95913.13;;;5.32
13410;BMP180;6775;49.574;11.170;2023-12-22T01:17:12;95915.69;;;5.32
13410;BMP180;6775;49.574;11.170;2023-12-22T01:19:40;95915.69;;;5.32
13410;BMP180;6775;49.574;11.170;2023-12-22T01:22:09;95898.50;;;5.34
13410;BMP180;6775;49.574;11.170;2023-12-22T01:24:37;95908.69;;;5.34
13410;BMP180;6775;49.574;11.170;2023-12-22T01:27:09;95909.66;;;5.33
13410;BMP180;6775;49.574;11.170;2023-12-22T01:29:38;95918.09;;;5.33
13410;BMP180;6775;49.574;11.170;2023-12-22T01:32:06;95918.34;;;5.30
13410;BMP180;6775;49.574;11.170;2023-12-22T01:34:34;95926.78;;;5.31
13410;BMP180;6775;49.574;11.170;2023-12-22T01:37:03;95935.47;;;5.28
13410;BMP180;6775;49.574;11.170;2023-12-22T01:39:32;95938.16;;;5.27
13410;BMP180;6775;49.574;11.170;2023-12-22T01:42:00;95943.50;;;5.24
13410;BMP180;6775;49.574;11.170;2023-12-22T01:44:29;95948.59;;;5.24
13410;BMP180;6775;49.574;11.170;2023-12-22T01:46:57;95952.91;;;5.23
13410;BMP180;6775;49.574;11.170;2023-12-22T01:49:26;95957.72;;;5.26
13410;BMP180;6775;49.574;11.170;2023-12-22T01:51:57;95955.06;;;5.28
13410;BMP180;6775;49.574;11.170;2023-12-22T01:54:25;95949.72;;;5.31
13410;BMP180;6775;49.574;11.170;2023-12-22T01:56:55;95934.75;;;5.37
13410;BMP180;6775;49.574;11.170;2023-12-22T01:59:24;95939.13;;;5.35
13410;BMP180;6775;49.574;11.170;2023-12-22T02:01:53;95929.22;;;5.32
13410;BMP180;6775;49.574;11.170;2023-12-22T02:04:23;95916.47;;;5.32
13410;BMP180;6775;49.574;11.170;2023-12-22T02:06:53;95919.59;;;5.36
13410;BMP180;6775;49.574;11.170;2023-12-22T02:09:21;95923.72;;;5.37
13410;BMP180;6775;49.574;11.170;2023-12-22T02:11:49;95915.56;;;5.33
13410;BMP180;6775;49.574;11.170;2023-12-22T02:14:19;95931.63;;;5.34
13410;BMP180;6775;49.574;11.170;2023-12-22T02:16:55;95929.91;;;5.34
13410;BMP180;6775;49.574;11.170;2023-12-22T02:19:42;95931.50;;;5.35
13410;BMP180;6775;49.574;11.170;2023-12-22T02:22:12;95923.97;;;5.34
13410;BMP180;6775;49.574;11.170;2023-12-22T02:24:42;95910.31;;;5.35
13410;BMP180;6775;49.574;11.170;2023-12-22T02:27:27;95904.56;;;5.33
13410;BMP180;6775;49.574;11.170;2023-12-22T02:30:07;95906.16;;;5.34
13410;BMP180;6775;49.574;11.170;2023-12-22T02:32:40;95916.22;;;5.35
13410;BMP180;6775;49.574;11.170;2023-12-22T02:35:14;95915.41;;;5.35
13410;BMP180;6775;49.574;11.170;2023-12-22T02:37:46;95917.84;;;5.36
13410;BMP180;6775;49.574;11.170;2023-12-22T02:40:17;95921.31;;;5.35
13410;BMP180;6775;49.574;11.170;2023-12-22T02:42:46;95928.94;;;5.35
13410;BMP180;6775;49.574;11.170;2023-12-22T02:45:17;95935.28;;;5.41
13410;BMP180;6775;49.574;11.170;2023-12-22T02:47:46;95927.50;;;5.42
13410;BMP180;6775;49.574;11.170;2023-12-22T02:50:16;95929.94;;;5.44
13410;BMP180;6775;49.574;11.170;2023-12-22T02:52:44;95931.53;;;5.45
13410;BMP180;6775;49.574;11.170;2023-12-22T02:55:13;95943.34;;;5.46
13410;BMP180;6775;49.574;11.170;2023-12-22T02:57:43;95930.63;;;5.46
13410;BMP180;6775;49.574;11.170;2023-12-22T03:00:12;95932.59;;;5.42
13410;BMP180;6775;49.574;11.170;2023-12-22T03:02:40;95919.19;;;5.40
13410;BMP180;6775;49.574;11.170;2023-12-22T03:05:08;95928.03;;;5.36
13410;BMP180;6775;49.574;11.170;2023-12-22T03:07:37;95932.44;;;5.34
13410;BMP180;6775;49.574;11.170;2023-12-22T03:10:06;95947.88;;;5.33
13410;BMP180;6775;49.574;11.170;2023-12-22T03:12:34;95960.94;;;5.28
13410;BMP180;6775;49.574;11.170;2023-12-22T03:15:05;95956.69;;;5.29
13410;BMP180;6775;49.574;11.170;2023-12-22T03:17:34;95968.47;;;5.30
13410;BMP180;6775;49.574;11.170;2023-12-22T03:20:02;95971.25;;;5.27
13410;BMP180;6775;49.574;11.170;2023-12-22T03:22:30;95961.78;;;5.29
13410;BMP180;6775;49.574;11.170;2023-12-22T03:24:59;95963.63;;;5.27
13410;BMP180;6775;49.574;11.170;2023-12-22T03:27:27;95960.16;;;5.28
13410;BMP180;6775;49.574;11.170;2023-12-22T03:29:55;95956.69;;;5.29
13410;BMP180;6775;49.574;11.170;2023-12-22T03:32:23;95927.03;;;5.28
13410;BMP180;6775;49.574;11.170;2023-12-22T03:34:52;95935.19;;;5.22
13410;BMP180;6775;49.574;11.170;2023-12-22T03:37:20;95952.91;;;5.23
13410;BMP180;6775;49.574;11.170;2023-12-22T03:39:48;95965.75;;;5.22
13410;BMP180;6775;49.574;11.170;2023-12-22T03:42:16;95945.63;;;5.19
13410;BMP180;6775;49.574;11.170;2023-12-22T03:44:44;95961.03;;;5.17
13410;BMP180;6775;49.574;11.170;2023-12-22T03:47:12;95955.00;;;5.18
13410;BMP180;6775;49.574;11.170;2023-12-22T03:49:43;95946.69;;;5.16
13410;BMP180;6775;49.574;11.170;2023-12-22T03:52:11;95948.44;;;5.16
13410;BMP180;6775;49.574;11.170;2023-12-22T03:54:41;95947.50;;;5.17
13410;BMP180;6775;49.574;11.170;2023-12-22T03:57:09;95953.16;;;5.20
13410;BMP180;6775;49.574;11.170;2023-12-22T03:59:37;95943.75;;;5.21
13410;BMP180;6775;49.574;11.170;2023-12-22T04:02:05;95947.94;;;5.22
13410;BMP180;6775;49.574;11.170;2023-12-22T04:04:37;95916.56;;;5.21
13410;BMP180;6775;49.574;11.170;2023-12-22T04:07:07;95912.28;;;5.22
13410;BMP180;6775;49.574;11.170;2023-12-22T04:09:37;95906.75;;;5.17
13410;BMP180;6775;49.574;11.170;2023-12-22T04:12:06;95931.53;;;5.15
13410;BMP180;6775;49.574;11.170;2023-12-22T04:14:34;95942.53;;;5.15
13410;BMP180;6775;49.574;11.170;2023-12-22T04:17:03;95946.16;;;5.13
13410;BMP180;6775;49.574;11.170;2023-12-22T04:19:31;95938.66;;;5.21
13410;BMP180;6775;49.574;11.170;2023-12-22T04:21:59;95940.81;;;5.16
13410;BMP180;6775;49.574;11.170;2023-12-22T04:24:29;95944.28;;;5.15
13410;BMP180;6775;49.574;11.170;2023-12-22T04:26:57;95950.16;;;5.15
13410;BMP180;6775;49.574;11.170;2023-12-22T04:29:25;95942.91;;;5.11
13410;BMP180;6775;49.574;11.170;2023-12-22T04:31:53;95951.50;;;5.10
13410;BMP180;6775;49.574;11.170;2023-12-22T04:34:21;95954.97;;;5.09
13410;BMP180;6775;49.574;11.170;2023-12-22T04:36:49;95947.56;;;5.06
13410;BMP180;6775;49.574;11.170;2023-12-22T04:39:18;95968.06;;;5.04
13410;BMP180;6775;49.574;11.170;2023-12-22T04:41:48;95964.03;;;5.02
13410;BMP180;6775;49.574;11.170;2023-12-22T04:44:16;95959.84;;;5.01
13410;BMP180;6775;49.574;11.170;2023-12-22T04:46:45;95953.72;;;5.03
13410;BMP180;6775;49.574;11.170;2023-12-22T04:49:13;95956.41;;;5.02
13410;BMP180;6775;49.574;11.170;2023-12-22T04:51:42;95971.00;;;5.00
13410;BMP180;6775;49.574;11.170;2023-12-22T04:54:10;95961.47;;;5.02
13410;BMP180;6775;49.574;11.170;2023-12-22T04:56:38;95946.88;;;5.04
13410;BMP180;6775;49.574;11.170;2023-12-22T04:59:08;95966.69;;;5.00
13410;BMP180;6775;49.574;11.170;2023-12-22T05:01:36;95962.53;;;4.99
13410;BMP180;6775;49.574;11.170;2023-12-22T05:04:04;95973.66;;;4.99
13410;BMP180;6775;49.574;11.170;2023-12-22T05:06:35;95979.94;;;4.95
13410;BMP180;6775;49.574;11.170;2023-12-22T05:09:03;95989.41;;;4.93
13410;BMP180;6775;49.574;11.170;2023-12-22T05:11:32;95997.75;;;4.95
13410;BMP180;6775;49.574;11.170;2023-12-22T05:14:00;96004.69;;;4.93
13410;BMP180;6775;49.574;11.170;2023-12-22T05:16:30;95989.00;;;4.88
13410;BMP180;6775;49.574;11.170;2023-12-22T05:18:58;96000.91;;;4.87
13410;BMP180;6775;49.574;11.170;2023-12-22T05:21:26;96013.75;;;4.86
13410;BMP180;6775;49.574;11.170;2023-12-22T05:23:55;96003.84;;;4.83
13410;BMP180;6775;49.574;11.170;2023-12-22T05:26:23;96012.38;;;4.82
13410;BMP180;6775;49.574;11.170;2023-12-22T05:28:52;96016.56;;;4.83
13410;BMP180;6775;49.574;11.170;2023-12-22T05:31:20;96010.50;;;4.84
13410;BMP180;6775;49.574;11.170;2023-12-22T05:33:49;96012.03;;;4.86
13410;BMP180;6775;49.574;11.170;2023-12-22T05:36:17;96014.06;;;4.92
13410;BMP180;6775;49.574;11.170;2023-12-22T05:38:46;96019.41;;;4.89
13410;BMP180;6775;49.574;11.170;2023-12-22T05:41:14;96008.44;;;4.89
13410;BMP180;6775;49.574;11.170;2023-12-22T05:43:42;96022.06;;;4.88
13410;BMP180;6775;49.574;11.170;2023-12-22T05:46:11;96022.38;;;4.94
13410;BMP180;6775;49.574;11.170;2023-12-22T05:48:39;96018.91;;;4.95
13410;BMP180;6775;49.574;11.170;2023-12-22T05:51:08;96013.81;;;4.95
13410;BMP180;6775;49.574;11.170;2023-12-22T05:53:40;96007.94;;;4.95
13410;BMP180;6775;49.574;11.170;2023-12-22T05:56:17;96012.19;;;4.94
13410;BMP180;6775;49.574;11.170;2023-12-22T05:58:48;96019.16;;;4.92
13410;BMP180;6775;49.574;11.170;2023-12-22T06:01:16;96004.13;;;4.89
13410;BMP180;6775;49.574;11.170;2023-12-22T06:03:46;96010.84;;;4.90
13410;BMP180;6775;49.574;11.170;2023-12-22T06:06:16;95998.13;;;4.90
13410;BMP180;6775;49.574;11.170;2023-12-22T06:08:45;96009.22;;;4.89
13410;BMP180;6775;49.574;11.170;2023-12-22T06:11:14;95999.28;;;4.86
13410;BMP180;6775;49.574;11.170;2023-12-22T06:13:42;95985.31;;;4.81
13410;BMP180;6775;49.574;11.170;2023-12-22T06:16:14;95983.56;;;4.81
13410;BMP180;6775;49.574;11.170;2023-12-22T06:18:42;96005.38;;;4.74
13410;BMP180;6775;49.574;11.170;2023-12-22T06:21:11;95999.69;;;4.71
13410;BMP180;6775;49.574;11.170;2023-12-22T06:23:40;96009.56;;;4.64
13410;BMP180;6775;49.574;11.170;2023-12-22T06:26:10;96033.41;;;4.63
13410;BMP180;6775;49.574;11.170;2023-12-22T06:28:39;96028.56;;;4.60
13410;BMP180;6775;49.574;11.170;2023-12-22T06:31:17;96023.47;;;4.60
13410;BMP180;6775;49.574;11.170;2023-12-22T06:33:47;96024.00;;;4.64
13410;BMP180;6775;49.574;11.170;2023-12-22T06:36:20;96027.25;;;4.66
13410;BMP180;6775;49.574;11.170;2023-12-22T06:38:50;96035.69;;;4.66
13410;BMP180;6775;49.574;11.170;2023-12-22T06:41:20;96035.19;;;4.72
13410;BMP180;6775;49.574;11.170;2023-12-22T06:43:54;96034.28;;;4.73
13410;BMP180;6775;49.574;11.170;2023-12-22T06:46:24;96034.28;;;4.73
13410;BMP180;6775;49.574;11.170;2023-12-22T06:48:54;96027.19;;;4.77
13410;BMP180;6775;49.574;11.170;2023-12-22T06:51:25;96051.72;;;4.78
13410;BMP180;6775;49.574;11.170;2023-12-22T06:53:55;96040.50;;;4.80
13410;BMP180;6775;49.574;11.170;2023-12-22T06:56:25;96056.81;;;4.78
13410;BMP180;6775;49.574;11.170;2023-12-22T06:58:56;96062.69;;;4.78
13410;BMP180;6775;49.574;11.170;2023-12-22T07:01:27;96069.41;;;4.79
13410;BMP180;6775;49.574;11.170;2023-12-22T07:03:56;96071.16;;;4.79
13410;BMP180;6775;49.574;11.170;2023-12-22T07:06:25;96065.00;;;4.81
13410;BMP180;6775;49.574;11.170;2023-12-22T07:09:31;96074.75;;;4.76
13410;BMP180;6775;49.574;11.170;2023-12-22T07:12:00;96070.81;;;4.72
13410;BMP180;6775;49.574;11.170;2023-12-22T07:14:28;96053.25;;;4.69
13410;BMP180;6775;49.574;11.170;2023-12-22T07:16:56;96056.97;;;4.65
13410;BMP180;6775;49.574;11.170;2023-12-22T07:19:27;96049.34;;;4.65
13410;BMP180;6775;49.574;11.170;2023-12-22T07:21:55;96056.28;;;4.63
13410;BMP180;6775;49.574;11.170;2023-12-22T07:24:23;96064.72;;;4.64
13410;BMP180;6775;49.574;11.170;2023-12-22T07:26:53;96067.38;;;4.62
13410;BMP180;6775;49.574;11.170;2023-12-22T07:29:21;96070.63;;;4.64
13410;BMP180;6775;49.574;11.170;2023-12-22T07:31:51;96082.41;;;4.65
13410;BMP180;6775;49.574;11.170;2023-12-22T07:34:19;96067.16;;;4.65
13410;BMP180;6775;49.574;11.170;2023-12-22T07:36:49;96060.47;;;4.64
13410;BMP180;6775;49.574;11.170;2023-12-22T07:39:32;96085.66;;;4.67
13410;BMP180;6775;49.574;11.170;2023-12-22T07:42:03;96085.78;;;4.66
13410;BMP180;6775;49.574;11.170;2023-12-22T07:44:33;96078.94;;;4.66
13410;BMP180;6775;49.574;11.170;2023-12-22T07:47:01;96067.03;;;4.67
13410;BMP180;6775;49.574;11.170;2023-12-22T07:49:30;96070.50;;;4.66
13410;BMP180;6775;49.574;11.170;2023-12-22T07:51:59;96075.25;;;4.70
13410;BMP180;6775;49.574;11.170;2023-12-22T07:54:30;96085.19;;;4.73
13410;BMP180;6775;49.574;11.170;2023-12-22T07:56:58;96096.75;;;4.77
13410;BMP180;6775;49.574;11.170;2023-12-22T07:59:27;96098.00;;;4.83
13410;BMP180;6775;49.574;11.170;2023-12-22T08:01:58;96101.91;;;4.87
13410;BMP180;6775;49.574;11.170;2023-12-22T08:04:27;96099.81;;;4.92
13410;BMP180;6775;49.574;11.170;2023-12-22T08:06:55;96115.63;;;4.95
13410;BMP180;6775;49.574;11.170;2023-12-22T08:09:24;96122.91;;;4.99
13410;BMP180;6775;49.574;11.170;2023-12-22T08:11:52;96131.13;;;5.03
13410;BMP180;6775;49.574;11.170;2023-12-22T08:14:20;96134.09;;;5.08
13410;BMP180;6775;49.574;11.170;2023-12-22T08:16:50;96139.78;;;5.11
13410;BMP180;6775;49.574;11.170;2023-12-22T08:19:19;96151.19;;;5.17
13410;BMP180;6775;49.574;11.170;2023-12-22T08:21:48;96145.75;;;5.21
13410;BMP180;6775;49.574;11.170;2023-12-22T08:24:19;96145.41;;;5.26
13410;BMP180;6775;49.574;11.170;2023-12-22T08:26:50;96156.72;;;5.33
13410;BMP180;6775;49.574;11.170;2023-12-22T08:29:18;96159.69;;;5.38
13410;BMP180;6775;49.574;11.170;2023-12-22T08:31:47;96146.59;;;5.42
13410;BMP180;6775;49.574;11.170;2023-12-22T08:34:17;96157.91;;;5.49
13410;BMP180;6775;49.574;11.170;2023-12-22T08:36:45;96142.25;;;5.53
13410;BMP180;6775;49.574;11.170;2023-12-22T08:39:13;96160.28;;;5.61
13410;BMP180;6775;49.574;11.170;2023-12-22T08:41:42;96164.16;;;5.65
13410;BMP180;6775;49.574;11.170;2023-12-22T08:44:11;96171.47;;;5.70
13410;BMP180;6775;49.574;11.170;2023-12-22T08:46:41;96159.84;;;5.77
13410;BMP180;6775;49.574;11.170;2023-12-22T08:49:10;96167.63;;;5.75
13410;BMP180;6775;49.574;11.170;2023-12-22T08:51:40;96175.28;;;5.75
13410;BMP180;6775;49.574;11.170;2023-12-22T08:54:08;96178.88;;;5.73
13410;BMP180;6775;49.574;11.170;2023-12-22T08:56:36;96176.31;;;5.73
13410;BMP180;6775;49.574;11.170;2023-12-22T08:59:05;96176.44;;;5.71
13410;BMP180;6775;49.574;11.170;2023-12-22T09:01:35;96197.75;;;5.70
13410;BMP180;6775;49.574;11.170;2023-12-22T09:04:03;96188.38;;;5.71
13410;BMP180;6775;49.574;11.170;2023-12-22T09:06:34;96176.44;;;5.71
13410;BMP180;6775;49.574;11.170;2023-12-22T09:09:04;96172.94;;;5.72
13410;BMP180;6775;49.574;11.170;2023-12-22T09:11:33;96181.75;;;5.68
13410;BMP180;6775;49.574;11.170;2023-12-22T09:14:01;96193.84;;;5.66
13410;BMP180;6775;49.574;11.170;2023-12-22T09:16:29;96198.25;;;5.64
13410;BMP180;6775;49.574;11.170;2023-12-22T09:18:57;96196.63;;;5.63
13410;BMP180;6775;49.574;11.170;2023-12-22T09:21:25;96199.19;;;5.63
13410;BMP180;6775;49.574;11.170;2023-12-22T09:23:54;96200.56;;;5.67
13410;BMP180;6775;49.574;11.170;2023-12-22T09:26:23;96197.19;;;5.67
13410;BMP180;6775;49.574;11.170;2023-12-22T09:28:55;96196.63;;;5.63
13410;BMP180;6775;49.574;11.170;2023-12-22T09:31:23;96204.03;;;5.66
13410;BMP180;6775;49.574;11.170;2023-12-22T09:33:51;96208.22;;;5.67
13410;BMP180;6775;49.574;11.170;2023-12-22T09:36:20;96196.97;;;5.70
13410;BMP180;6775;49.574;11.170;2023-12-22T09:38:48;96203.41;;;5.74
13410;BMP180;6775;49.574;11.170;2023-12-22T09:41:16;96197.28;;;5.76
13410;BMP180;6775;49.574;11.170;2023-12-22T09:43:50;96204.00;;;5.77
13410;BMP180;6775;49.574;11.170;2023-12-22T09:46:21;96199.59;;;5.79
13410;BMP180;6775;49.574;11.170;2023-12-22T09:48:52;96201.88;;;5.82
13410;BMP180;6775;49.574;11.170;2023-12-22T09:51:21;96212.91;;;5.83
13410;BMP180;6775;49.574;11.170;2023-12-22T09:53:51;96199.34;;;5.82
13410;BMP180;6775;49.574;11.170;2023-12-22T09:56:23;96193.44;;;5.82
13410;BMP180;6775;49.574;11.170;2023-12-22T09:58:54;96196.00;;;5.82
13410;BMP180;6775;49.574;11.170;2023-12-22T10:01:25;96186.59;;;5.82
13410;BMP180;6775;49.574;11.170;2023-12-22T10:03:54;96198.53;;;5.82
13410;BMP180;6775;49.574;11.170;2023-12-22T10:06:22;96203.50;;;5.83
13410;BMP180;6775;49.574;11.170;2023-12-22T10:08:51;96206.44;;;5.79
13410;BMP180;6775;49.574;11.170;2023-12-22T10:11:21;96201.72;;;5.74
13410;BMP180;6775;49.574;11.170;2023-12-22T10:13:55;96191.63;;;5.73
13410;BMP180;6775;49.574;11.170;2023-12-22T10:16:23;96187.81;;;5.67
13410;BMP180;6775;49.574;11.170;2023-12-22T10:18:52;96186.19;;;5.66
13410;BMP180;6775;49.574;11.170;2023-12-22T10:21:20;96197.44;;;5.64
13410;BMP180;6775;49.574;11.170;2023-12-22T10:23:49;96186.44;;;5.63
13410;BMP180;6775;49.574;11.170;2023-12-22T10:26:17;96192.22;;;5.65
13410;BMP180;6775;49.574;11.170;2023-12-22T10:28:47;96188.63;;;5.68
13410;BMP180;6775;49.574;11.170;2023-12-22T10:31:17;96180.28;;;5.66
13410;BMP180;6775;49.574;11.170;2023-12-22T10:33:45;96180.72;;;5.71
13410;BMP180;6775;49.574;11.170;2023-12-22T10:36:14;96175.28;;;5.75
13410;BMP180;6775;49.574;11.170;2023-12-22T10:38:42;96174.91;;;5.80
13410;BMP180;6775;49.574;11.170;2023-12-22T10:41:11;96170.50;;;5.82
13410;BMP180;6775;49.574;11.170;2023-12-22T10:43:40;96159.59;;;5.80
13410;BMP180;6775;49.574;11.170;2023-12-22T10:46:09;96163.78;;;5.81
13410;BMP180;6775;49.574;11.170;2023-12-22T10:48:40;96155.22;;;5.82
13410;BMP180;6775;49.574;11.170;2023-12-22T10:51:10;96145.81;;;5.82
13410;BMP180;6775;49.574;11.170;2023-12-22T10:53:41;96139.66;;;5.85
13410;BMP180;6775;49.574;11.170;2023-12-22T10:56:10;96140.34;;;5.87
13410;BMP180;6775;49.574;11.170;2023-12-22T10:58:39;96133.50;;;5.87
13410;BMP180;6775;49.574;11.170;2023-12-22T11:01:09;96131.88;;;5.86
13410;BMP180;6775;49.574;11.170;2023-12-22T11:03:44;96141.53;;;5.83
13410;BMP180;6775;49.574;11.170;2023-12-22T11:06:15;96140.47;;;5.85
13410;BMP180;6775;49.574;11.170;2023-12-22T11:08:44;96131.63;;;5.89
13410;BMP180;6775;49.574;11.170;2023-12-22T11:11:27;96134.31;;;5.88
13410;BMP180;6775;49.574;11.170;2023-12-22T11:13:57;96128.66;;;5.84
13410;BMP180;6775;49.574;11.170;2023-12-22T11:16:27;96113.38;;;5.84
13410;BMP180;6775;49.574;11.170;2023-12-22T11:18:57;96106.66;;;5.83
13410;BMP180;6775;49.574;11.170;2023-12-22T11:21:27;96105.84;;;5.83
13410;BMP180;6775;49.574;11.170;2023-12-22T11:23:57;96118.47;;;5.84
13410;BMP180;6775;49.574;11.170;2023-12-22T11:26:25;96121.03;;;5.84
13410;BMP180;6775;49.574;11.170;2023-12-22T11:28:53;96112.28;;;5.87
13410;BMP180;6775;49.574;11.170;2023-12-22T11:31:26;96117.97;;;5.90
13410;BMP180;6775;49.574;11.170;2023-12-22T11:33:58;96112.88;;;5.90
13410;BMP180;6775;49.574;11.170;2023-12-22T11:36:38;96118.50;;;5.94
13410;BMP180;6775;49.574;11.170;2023-12-22T11:39:07;96110.72;;;5.95
13410;BMP180;6775;49.574;11.170;2023-12-22T11:41:37;96084.97;;;5.98
13410;BMP180;6775;49.574;11.170;2023-12-22T11:44:08;96092.09;;;6.04
13410;BMP180;6775;49.574;11.170;2023-12-22T11:46:37;96089.31;;;6.07
13410;BMP180;6775;49.574;11.170;2023-12-22T11:49:06;96079.66;;;6.10
13410;BMP180;6775;49.574;11.170;2023-12-22T11:51:35;96069.72;;;6.07
13410;BMP180;6775;49.574;11.170;2023-12-22T11:54:03;96059.53;;;6.07
13410;BMP180;6775;49.574;11.170;2023-12-22T11:56:32;96047.44;;;6.09
13410;BMP180;6775;49.574;11.170;2023-12-22T11:59:03;96064.91;;;6.14
13410;BMP180;6775;49.574;11.170;2023-12-22T12:01:38;96057.13;;;6.15
13410;BMP180;6775;49.574;11.170;2023-12-22T12:04:08;96044.22;;;6.17
13410;BMP180;6775;49.574;11.170;2023-12-22T12:06:36;96031.38;;;6.18
13410;BMP180;6775;49.574;11.170;2023-12-22T12:09:06;96021.84;;;6.20
13410;BMP180;6775;49.574;11.170;2023-12-22T12:12:11;96026.41;;;6.26
13410;BMP180;6775;49.574;11.170;2023-12-22T12:14:43;96030.06;;;6.33
13410;BMP180;6775;49.574;11.170;2023-12-22T12:17:15;96019.28;;;6.30
13410;BMP180;6775;49.574;11.170;2023-12-22T12:19:48;96020.13;;;6.30
13410;BMP180;6775;49.574;11.170;2023-12-22T12:22:18;95998.78;;;6.31
13410;BMP180;6775;49.574;11.170;2023-12-22T12:24:51;95998.53;;;6.34
13410;BMP180;6775;49.574;11.170;2023-12-22T12:27:20;95992.31;;;6.37
13410;BMP180;6775;49.574;11.170;2023-12-22T12:29:49;95981.19;;;6.38
13410;BMP180;6775;49.574;11.170;2023-12-22T12:32:23;95987.91;;;6.39
13410;BMP180;6775;49.574;11.170;2023-12-22T12:34:52;95966.41;;;6.41
13410;BMP180;6775;49.574;11.170;2023-12-22T12:37:23;95970.44;;;6.44
13410;BMP180;6775;49.574;11.170;2023-12-22T12:39:58;95959.31;;;6.45
13410;BMP180;6775;49.574;11.170;2023-12-22T12:42:29;95954.88;;;6.47
13410;BMP180;6775;49.574;11.170;2023-12-22T12:44:58;95940.13;;;6.50
13410;BMP180;6775;49.574;11.170;2023-12-22T12:47:26;95931.22;;;6.54
13410;BMP180;6775;49.574;11.170;2023-12-22T12:49:59;95936.88;;;6.57
13410;BMP180;6775;49.574;11.170;2023-12-22T12:52:28;95926.41;;;6.60
13410;BMP180;6775;49.574;11.170;2023-12-22T12:54:58;95913.22;;;6.65
13410;BMP180;6775;49.574;11.170;2023-12-22T12:57:28;95912.97;;;6.68
13410;BMP180;6775;49.574;11.170;2023-12-22T12:59:56;95900.88;;;6.70
13410;BMP180;6775;49.574;11.170;2023-12-22T13:02:24;95906.00;;;6.70
13410;BMP180;6775;49.574;11.170;2023-12-22T13:04:54;95889.56;;;6.72
13410;BMP180;6775;49.574;11.170;2023-12-22T13:07:26;95901.13;;;6.76
13410;BMP180;6775;49.574;11.170;2023-12-22T13:09:55;95899.22;;;6.78
13410;BMP180;6775;49.574;11.170;2023-12-22T13:12:24;95910.78;;;6.82
13410;BMP180;6775;49.574;11.170;2023-12-22T13:14:52;95912.66;;;6.90
13410;BMP180;6775;49.574;11.170;2023-12-22T13:17:21;95904.84;;;6.91
13410;BMP180;6775;49.574;11.170;2023-12-22T13:19:50;95904.84;;;6.91
13410;BMP180;6775;49.574;11.170;2023-12-22T13:22:18;95897.75;;;6.95
13410;BMP180;6775;49.574;11.170;2023-12-22T13:24:56;95896.66;;;6.97
13410;BMP180;6775;49.574;11.170;2023-12-22T13:27:25;95885.22;;;7.01
13410;BMP180;6775;49.574;11.170;2023-12-22T13:29:53;95905.50;;;7.02
13410;BMP180;6775;49.574;11.170;2023-12-22T13:32:22;95890.03;;;7.04
13410;BMP180;6775;49.574;11.170;2023-12-22T13:34:53;95881.16;;;7.08
13410;BMP180;6775;49.574;11.170;2023-12-22T13:37:22;95879.28;;;7.10
13410;BMP180;6775;49.574;11.170;2023-12-22T13:39:53;95880.75;;;7.12
13410;BMP180;6775;49.574;11.170;2023-12-22T13:42:23;95890.81;;;7.14
13410;BMP180;6775;49.574;11.170;2023-12-22T13:44:51;95873.91;;;7.13
13410;BMP180;6775;49.574;11.170;2023-12-22T13:47:20;95878.88;;;7.14
13410;BMP180;6775;49.574;11.170;2023-12-22T13:49:48;95875.22;;;7.17
13410;BMP180;6775;49.574;11.170;2023-12-22T13:52:30;95868.22;;;7.19
13410;BMP180;6775;49.574;11.170;2023-12-22T13:55:02;95880.06;;;7.20
13410;BMP180;6775;49.574;11.170;2023-12-22T13:57:31;95878.16;;;7.22
13410;BMP180;6775;49.574;11.170;2023-12-22T13:59:59;95880.88;;;7.20
13410;BMP180;6775;49.574;11.170;2023-12-22T14:02:27;95871.28;;;7.22
13410;BMP180;6775;49.574;11.170;2023-12-22T14:04:56;95883.00;;;7.25
13410;BMP180;6775;49.574;11.170;2023-12-22T14:07:24;95890.38;;;7.28
13410;BMP180;6775;49.574;11.170;2023-12-22T14:09:53;95878.94;;;7.32
13410;BMP180;6775;49.574;11.170;2023-12-22T14:12:21;95891.72;;;7.32
13410;BMP180;6775;49.574;11.170;2023-12-22T14:14:59;95879.59;;;7.34
13410;BMP180;6775;49.574;11.170;2023-12-22T14:17:27;95883.47;;;7.38
13410;BMP180;6775;49.574;11.170;2023-12-22T14:19:58;95893.41;;;7.41
13410;BMP180;6775;49.574;11.170;2023-12-22T14:22:27;95893.41;;;7.41
13410;BMP180;6775;49.574;11.170;2023-12-22T14:24:55;95880.50;;;7.42
13410;BMP180;6775;49.574;11.170;2023-12-22T14:27:24;95893.13;;;7.44
13410;BMP180;6775;49.574;11.170;2023-12-22T14:29:52;95890.56;;;7.44
13410;BMP180;6775;49.574;11.170;2023-12-22T14:32:21;95887.22;;;7.43
13410;BMP180;6775;49.574;11.170;2023-12-22T14:34:49;95878.09;;;7.41